Time;durP1;ratioP1;P1;durP2;ratioP2;P2;SDS_P1;SDS_P2;PMS_P1;PMS_P2;Temp;Humidity;BMP_temperature;BMP_pressure;BME280_temperature;BME280_humidity;BME280_pressure;Samples;Min_cycle;Max_cycle;Signal;HPM_P1;HPM_P2
2021/09/23 00:00:51;;;;;;;26.87;20.90;;;10.80;99.90;;;;;;5017707;28;20210;-81
2021/09/23 00:05:55;;;;;;;23.90;19.20;;;10.80;99.90;;;;;;5034072;28;20177;-85
2021/09/23 00:08:21;;;;;;;30.70;19.83;;;10.80;99.90;;;;;;5035118;28;20182;-81
2021/09/23 00:10:47;;;;;;;32.80;21.60;;;10.70;99.90;;;;;;5018354;28;20182;-81
2021/09/23 00:13:12;;;;;;;27.10;20.73;;;10.70;99.90;;;;;;5034579;28;20269;-80
2021/09/23 00:15:39;;;;;;;25.97;20.83;;;10.80;99.90;;;;;;5034833;28;20170;-80
2021/09/23 00:18:10;;;;;;;28.33;21.27;;;10.80;99.90;;;;;;5035177;28;20638;-81
2021/09/23 00:20:37;;;;;;;30.93;22.70;;;10.80;99.90;;;;;;5034512;28;20170;-81
2021/09/23 00:23:03;;;;;;;30.73;22.80;;;10.80;99.90;;;;;;5034656;28;20213;-81
2021/09/23 00:25:30;;;;;;;29.87;22.53;;;10.70;99.90;;;;;;5018446;28;20186;-81
2021/09/23 00:27:56;;;;;;;31.43;22.53;;;10.70;99.90;;;;;;5001707;28;20186;-81
2021/09/23 00:30:24;;;;;;;31.47;23.57;;;10.70;99.90;;;;;;5038547;28;20189;-81
2021/09/23 00:32:50;;;;;;;31.23;24.17;;;10.70;99.90;;;;;;5041504;28;20321;-82
2021/09/23 00:35:16;;;;;;;33.90;25.07;;;10.70;99.90;;;;;;5041323;28;20179;-82
2021/09/23 00:37:45;;;;;;;31.87;23.10;;;10.70;99.90;;;;;;5037908;28;20201;-81
2021/09/23 00:40:10;;;;;;;30.97;23.40;;;10.70;99.90;;;;;;5002118;28;20189;-81
2021/09/23 00:42:38;;;;;;;31.63;23.93;;;10.70;99.90;;;;;;5037507;28;20646;-80
2021/09/23 00:45:06;;;;;;;31.93;23.37;;;10.70;99.90;;;;;;5039623;28;20175;-81
2021/09/23 00:47:35;;;;;;;32.63;23.43;;;10.70;99.90;;;;;;5046040;28;20579;-81
2021/09/23 00:50:03;;;;;;;34.83;24.63;;;10.70;99.90;;;;;;5013149;28;20224;-81
2021/09/23 00:52:31;;;;;;;32.30;23.70;;;10.60;99.90;;;;;;5012743;28;20175;-82
2021/09/23 00:54:56;;;;;;;32.10;23.60;;;10.60;99.90;;;;;;5046571;28;20240;-81
2021/09/23 00:57:22;;;;;;;33.13;23.17;;;10.60;99.90;;;;;;5045891;28;20242;-82
2021/09/23 00:59:49;;;;;;;30.10;23.10;;;10.50;99.90;;;;;;5047486;28;20220;-81
2021/09/23 01:02:15;;;;;;;31.87;23.93;;;10.50;99.90;;;;;;5046553;28;20557;-81
2021/09/23 01:04:44;;;;;;;32.00;23.80;;;10.40;99.90;;;;;;5046666;28;20294;-82
2021/09/23 01:07:11;;;;;;;31.47;23.80;;;10.40;99.90;;;;;;5045028;28;20190;-85
2021/09/23 01:09:47;;;;;;;34.33;24.40;;;10.40;99.90;;;;;;5044394;28;20189;-84
2021/09/23 01:12:13;;;;;;;32.33;24.03;;;10.40;99.90;;;;;;5029656;28;20204;-82
2021/09/23 01:14:38;;;;;;;33.90;25.10;;;10.40;99.90;;;;;;5045913;28;20238;-81
2021/09/23 01:17:04;;;;;;;33.30;25.07;;;10.30;99.90;;;;;;5046233;28;20212;-82
2021/09/23 01:19:31;;;;;;;33.83;24.47;;;10.30;99.90;;;;;;5029643;28;20196;-81
2021/09/23 01:21:56;;;;;;;33.63;24.63;;;10.30;99.90;;;;;;5039838;28;20210;-82
2021/09/23 01:24:22;;;;;;;33.10;25.30;;;10.30;99.90;;;;;;5037745;28;20199;-80
2021/09/23 01:26:48;;;;;;;35.83;24.43;;;10.30;99.90;;;;;;5038365;28;20183;-81
2021/09/23 01:29:17;;;;;;;34.83;25.20;;;10.30;99.90;;;;;;5038283;28;20209;-81
2021/09/23 01:31:43;;;;;;;33.57;25.67;;;10.30;99.90;;;;;;5021865;28;20167;-81
2021/09/23 01:34:10;;;;;;;34.83;25.97;;;10.30;99.90;;;;;;5037825;28;20269;-81
2021/09/23 01:36:35;;;;;;;39.30;26.30;;;10.30;99.90;;;;;;5020734;28;20241;-82
2021/09/23 01:39:01;;;;;;;38.17;26.30;;;10.30;99.90;;;;;;5037304;28;20642;-81
2021/09/23 01:41:27;;;;;;;36.70;26.90;;;10.40;99.90;;;;;;5038230;28;20188;-81
2021/09/23 01:43:55;;;;;;;37.23;26.53;;;10.40;99.90;;;;;;5004260;28;20195;-81
2021/09/23 01:46:22;;;;;;;37.50;26.07;;;10.40;99.90;;;;;;5005115;28;20177;-81
2021/09/23 01:48:48;;;;;;;39.53;27.63;;;10.40;99.90;;;;;;5003999;28;20186;-81
2021/09/23 01:51:15;;;;;;;35.73;26.30;;;10.40;99.90;;;;;;5004764;28;20182;-81
2021/09/23 01:53:41;;;;;;;36.00;25.27;;;10.30;99.90;;;;;;5002759;28;20238;-81
2021/09/23 01:56:06;;;;;;;38.27;28.10;;;10.30;99.90;;;;;;5037004;28;20665;-81
2021/09/23 01:58:32;;;;;;;40.50;26.47;;;10.30;99.90;;;;;;5037209;28;20174;-81
2021/09/23 02:00:57;;;;;;;38.63;27.57;;;10.30;99.90;;;;;;5037750;28;20189;-82
2021/09/23 02:03:23;;;;;;;36.57;27.17;;;10.30;99.90;;;;;;5036826;28;20201;-81
2021/09/23 02:05:48;;;;;;;38.10;26.07;;;10.30;99.90;;;;;;5038223;28;20185;-80
2021/09/23 02:08:14;;;;;;;38.93;26.73;;;10.30;99.90;;;;;;5021770;28;20266;-81
2021/09/23 02:10:39;;;;;;;38.07;26.40;;;10.20;99.90;;;;;;5021191;28;20684;-80
2021/09/23 02:13:05;;;;;;;37.20;26.83;;;10.30;99.90;;;;;;5020637;28;20610;-81
2021/09/23 02:15:31;;;;;;;37.37;26.60;;;10.30;99.90;;;;;;5021381;28;20181;-81
2021/09/23 02:17:56;;;;;;;39.60;28.37;;;10.30;99.90;;;;;;5036675;28;20220;-81
2021/09/23 02:20:22;;;;;;;41.07;27.77;;;10.30;99.90;;;;;;5036845;28;20209;-81
2021/09/23 02:22:47;;;;;;;38.43;26.97;;;10.30;99.90;;;;;;5037187;28;20646;-81
2021/09/23 02:25:13;;;;;;;43.33;28.67;;;10.30;99.90;;;;;;5020829;28;20174;-81
2021/09/23 02:27:38;;;;;;;42.70;29.73;;;10.40;99.90;;;;;;5037513;28;20210;-81
2021/09/23 02:30:07;;;;;;;42.80;29.17;;;10.40;99.90;;;;;;5036757;28;20185;-81
2021/09/23 02:32:33;;;;;;;37.13;27.50;;;10.50;99.90;;;;;;5036756;28;20594;-80
2021/09/23 02:34:59;;;;;;;42.77;29.67;;;10.50;99.90;;;;;;5019514;28;20190;-81
2021/09/23 02:37:24;;;;;;;42.77;29.43;;;10.50;99.90;;;;;;5019932;28;20592;-81
2021/09/23 02:39:53;;;;;;;45.93;30.30;;;10.50;99.90;;;;;;5035851;28;20235;-81
2021/09/23 02:42:21;;;;;;;43.37;29.80;;;10.60;99.90;;;;;;5003552;28;20185;-81
2021/09/23 02:44:51;;;;;;;46.70;30.80;;;10.70;99.90;;;;;;5036225;28;20210;-81
2021/09/23 02:47:17;;;;;;;48.87;31.30;;;10.70;99.90;;;;;;5003232;28;20194;-81
2021/09/23 02:49:43;;;;;;;48.53;30.73;;;10.80;99.90;;;;;;5036338;28;20261;-81
2021/09/23 02:52:08;;;;;;;46.83;30.37;;;10.80;99.90;;;;;;5035654;28;20186;-81
2021/09/23 02:54:34;;;;;;;44.40;30.00;;;10.80;99.90;;;;;;5034936;28;20597;-81
2021/09/23 02:57:00;;;;;;;49.13;31.70;;;10.90;99.90;;;;;;5026902;28;20186;-81
2021/09/23 02:59:25;;;;;;;51.13;30.73;;;11.00;99.90;;;;;;5043005;28;20185;-81
2021/09/23 03:01:51;;;;;;;47.60;30.37;;;11.00;99.90;;;;;;5042672;28;20177;-82
2021/09/23 03:04:16;;;;;;;49.90;31.60;;;11.00;99.90;;;;;;5042957;28;20273;-81
2021/09/23 03:06:43;;;;;;;47.77;31.93;;;11.10;99.90;;;;;;5020993;28;20181;-81
2021/09/23 03:09:08;;;;;;;43.00;29.97;;;11.10;99.90;;;;;;5035888;28;20189;-81
2021/09/23 03:11:35;;;;;;;46.70;30.63;;;11.20;99.90;;;;;;5019123;28;20556;-81
2021/09/23 03:14:00;;;;;;;45.07;29.77;;;11.20;99.90;;;;;;5019038;28;20290;-81
2021/09/23 03:16:26;;;;;;;41.23;28.87;;;11.40;99.90;;;;;;5019356;28;20179;-81
2021/09/23 03:18:51;;;;;;;42.43;29.67;;;11.30;99.90;;;;;;5036022;28;20175;-81
2021/09/23 03:21:19;;;;;;;45.40;29.97;;;11.40;99.90;;;;;;5035322;28;20600;-82
2021/09/23 03:23:45;;;;;;;40.37;28.70;;;11.40;99.90;;;;;;5034846;28;20201;-81
2021/09/23 03:26:12;;;;;;;44.40;27.53;;;11.40;99.90;;;;;;5034981;28;20175;-81
2021/09/23 03:28:41;;;;;;;41.07;28.07;;;11.40;99.90;;;;;;5035285;28;20723;-82
2021/09/23 03:31:07;;;;;;;43.57;28.90;;;11.50;99.90;;;;;;5034821;28;20174;-82
2021/09/23 03:33:34;;;;;;;41.53;28.43;;;11.50;99.90;;;;;;5034198;28;20232;-81
2021/09/23 03:35:59;;;;;;;41.50;28.30;;;11.50;99.90;;;;;;5018329;28;20197;-83
2021/09/23 03:38:25;;;;;;;39.17;27.23;;;11.60;99.90;;;;;;5034408;28;20638;-82
2021/09/23 03:40:51;;;;;;;42.20;27.43;;;11.60;99.90;;;;;;5034602;28;20229;-81
2021/09/23 03:43:16;;;;;;;41.57;27.97;;;11.50;99.90;;;;;;5034380;28;20210;-81
2021/09/23 03:45:42;;;;;;;42.37;27.07;;;11.50;99.90;;;;;;5034257;28;20190;-81
2021/09/23 03:48:08;;;;;;;41.73;27.03;;;11.50;99.90;;;;;;5034109;28;20179;-82
2021/09/23 03:50:34;;;;;;;40.20;28.40;;;11.40;99.90;;;;;;5018099;28;20217;-81
2021/09/23 03:53:00;;;;;;;41.03;28.07;;;11.40;99.90;;;;;;5033506;28;20211;-81
2021/09/23 03:55:26;;;;;;;38.87;27.70;;;11.30;99.90;;;;;;5033739;28;20266;-82
2021/09/23 03:57:53;;;;;;;39.70;27.20;;;11.20;99.90;;;;;;5033610;28;20500;-81
2021/09/23 04:00:21;;;;;;;40.50;27.53;;;11.20;99.90;;;;;;5017494;28;20183;-82
2021/09/23 04:02:50;;;;;;;40.23;26.40;;;11.10;99.90;;;;;;5033701;28;20187;-81
2021/09/23 04:05:16;;;;;;;38.80;27.27;;;11.10;99.90;;;;;;5001019;28;20202;-82
2021/09/23 04:07:42;;;;;;;39.03;27.30;;;11.10;99.90;;;;;;5017549;28;20304;-82
2021/09/23 04:10:09;;;;;;;38.33;27.90;;;11.00;99.90;;;;;;5016819;28;20178;-81
2021/09/23 04:12:35;;;;;;;43.07;27.63;;;11.00;99.90;;;;;;5016200;28;20212;-82
2021/09/23 04:15:00;;;;;;;39.30;27.43;;;11.00;99.90;;;;;;5000113;28;20261;-82
2021/09/23 04:17:26;;;;;;;38.77;28.00;;;11.00;99.90;;;;;;5016540;28;20182;-81
2021/09/23 04:19:51;;;;;;;38.53;26.90;;;11.00;99.90;;;;;;5016821;28;20217;-82
2021/09/23 04:22:17;;;;;;;39.73;26.90;;;10.90;99.90;;;;;;5000967;28;20186;-82
2021/09/23 04:24:43;;;;;;;38.27;27.07;;;10.90;99.90;;;;;;5002873;28;20207;-82
2021/09/23 04:27:10;;;;;;;41.70;27.60;;;10.90;99.90;;;;;;5003493;28;20679;-81
2021/09/23 04:29:36;;;;;;;43.77;27.83;;;10.80;99.90;;;;;;5019660;28;20189;-81
2021/09/23 04:32:02;;;;;;;38.93;26.57;;;10.80;99.90;;;;;;5002329;28;20237;-81
2021/09/23 04:34:27;;;;;;;37.07;25.93;;;10.80;99.90;;;;;;5002334;28;20219;-82
2021/09/23 04:36:53;;;;;;;41.20;27.13;;;10.70;99.90;;;;;;5018273;28;20183;-81
2021/09/23 04:39:18;;;;;;;41.97;27.33;;;10.70;99.90;;;;;;4999276;28;20194;-83
2021/09/23 04:41:48;;;;;;;37.10;26.70;;;10.70;99.90;;;;;;4999482;28;20651;-87
2021/09/23 04:44:15;;;;;;;40.60;26.47;;;10.70;99.90;;;;;;5001850;28;20206;-84
2021/09/23 04:46:41;;;;;;;37.40;26.17;;;10.60;99.90;;;;;;5002115;28;20281;-86
2021/09/23 04:49:08;;;;;;;41.53;26.53;;;10.60;99.90;;;;;;4999551;28;20368;-85
2021/09/23 04:51:34;;;;;;;39.83;26.60;;;10.50;99.90;;;;;;5000194;28;20597;-79
2021/09/23 04:54:03;;;;;;;38.77;26.20;;;10.60;99.90;;;;;;4999504;28;20225;-78
2021/09/23 04:56:28;;;;;;;38.00;26.43;;;10.40;99.90;;;;;;5016311;28;20181;-80
2021/09/23 04:58:54;;;;;;;38.37;26.83;;;10.40;99.90;;;;;;5033639;28;20181;-81
2021/09/23 05:01:20;;;;;;;38.73;25.77;;;10.40;99.90;;;;;;5016881;28;20210;-79
2021/09/23 05:03:45;;;;;;;39.27;26.57;;;10.40;99.90;;;;;;4999018;28;20198;-78
2021/09/23 05:06:13;;;;;;;40.27;26.50;;;10.30;99.90;;;;;;5015374;28;20189;-78
2021/09/23 05:08:39;;;;;;;34.87;25.20;;;10.30;99.90;;;;;;5017374;28;20672;-79
2021/09/23 05:11:06;;;;;;;39.80;25.83;;;10.20;99.90;;;;;;5016768;28;20273;-81
2021/09/23 05:13:32;;;;;;;36.73;25.97;;;10.20;99.90;;;;;;5014780;28;20216;-79
2021/09/23 05:15:57;;;;;;;37.70;25.33;;;10.20;99.90;;;;;;4998887;28;20239;-81
2021/09/23 05:18:27;;;;;;;37.40;25.60;;;10.20;99.90;;;;;;5030810;28;20182;-78
2021/09/23 05:20:52;;;;;;;37.07;25.07;;;10.10;99.90;;;;;;4997933;28;20197;-78
2021/09/23 05:23:21;;;;;;;43.20;27.27;;;10.10;99.90;;;;;;5013856;28;20206;-77
2021/09/23 05:25:49;;;;;;;35.67;25.63;;;10.10;99.90;;;;;;4998101;28;20192;-76
2021/09/23 05:28:14;;;;;;;40.30;27.37;;;10.10;99.90;;;;;;5014229;28;20214;-77
2021/09/23 05:30:41;;;;;;;38.10;25.13;;;10.10;99.90;;;;;;5000961;28;20808;-77
2021/09/23 05:33:08;;;;;;;43.40;26.70;;;10.10;99.90;;;;;;5017471;28;20206;-78
2021/09/23 05:35:33;;;;;;;39.73;26.07;;;10.10;99.90;;;;;;5017437;28;20185;-77
2021/09/23 05:37:59;;;;;;;44.67;26.50;;;10.10;99.90;;;;;;5033698;28;20174;-78
2021/09/23 05:40:25;;;;;;;38.93;26.43;;;10.10;99.90;;;;;;5000555;28;20207;-77
2021/09/23 05:42:50;;;;;;;37.50;25.50;;;10.20;99.90;;;;;;5033451;28;20245;-77
2021/09/23 05:45:16;;;;;;;36.30;25.83;;;10.20;99.90;;;;;;5017469;28;20187;-78
2021/09/23 05:47:43;;;;;;;39.17;25.23;;;10.20;99.90;;;;;;5016490;28;20193;-76
2021/09/23 05:50:10;;;;;;;35.23;24.93;;;10.20;99.90;;;;;;5033836;28;20197;-77
2021/09/23 05:52:39;;;;;;;37.03;24.90;;;10.30;99.90;;;;;;5019152;28;20177;-82
2021/09/23 05:55:07;;;;;;;38.40;25.03;;;10.30;99.90;;;;;;5004627;28;20220;-84
2021/09/23 05:57:34;;;;;;;32.93;24.40;;;10.30;99.90;;;;;;5005155;28;20179;-83
2021/09/23 06:00:08;;;;;;;36.67;24.97;;;10.40;99.90;;;;;;5021132;28;20168;-84
2021/09/23 06:02:35;;;;;;;36.13;24.13;;;10.40;99.90;;;;;;5005866;28;20182;-84
2021/09/23 06:05:00;;;;;;;34.73;24.07;;;10.50;99.90;;;;;;5004875;28;20876;-83
2021/09/23 06:07:28;;;;;;;36.90;23.97;;;10.50;99.90;;;;;;5005832;28;20241;-81
2021/09/23 06:09:54;;;;;;;34.83;24.27;;;10.70;99.90;;;;;;5004884;28;20228;-79
2021/09/23 06:12:23;;;;;;;32.67;23.67;;;11.00;99.90;;;;;;5019972;28;20186;-81
2021/09/23 06:14:48;;;;;;;31.67;22.77;;;11.30;99.90;;;;;;5003490;28;20224;-80
2021/09/23 06:17:15;;;;;;;30.73;21.20;;;11.50;99.90;;;;;;5011776;28;20209;-81
2021/09/23 06:19:40;;;;;;;28.63;19.90;;;11.90;99.90;;;;;;5014254;28;20199;-83
2021/09/23 06:22:06;;;;;;;26.03;19.17;;;12.40;99.90;;;;;;5031031;28;20179;-86
2021/09/23 06:24:34;;;;;;;26.47;18.47;;;12.90;99.90;;;;;;5013624;28;20208;-83
2021/09/23 06:27:00;;;;;;;27.13;19.13;;;13.50;99.90;;;;;;5032442;28;20174;-83
2021/09/23 06:29:26;;;;;;;24.03;17.83;;;14.20;99.90;;;;;;5031449;23;20254;-72
2021/09/23 06:31:53;;;;;;;22.03;15.87;;;14.80;99.90;;;;;;5012600;28;20195;-77
2021/09/23 06:34:19;;;;;;;22.93;16.63;;;15.40;99.90;;;;;;5028673;28;20206;-77
2021/09/23 06:36:44;;;;;;;26.23;16.80;;;16.00;99.90;;;;;;5029201;28;20168;-78
2021/09/23 06:39:10;;;;;;;23.00;16.33;;;16.80;99.90;;;;;;5033272;28;20194;-78
2021/09/23 06:41:35;;;;;;;22.93;15.97;;;17.40;99.90;;;;;;5030244;28;20193;-78
2021/09/23 06:44:04;;;;;;;21.27;15.73;;;17.20;99.90;;;;;;5013484;28;20191;-78
2021/09/23 06:46:29;;;;;;;23.00;15.73;;;16.90;99.90;;;;;;5014106;28;20689;-78
2021/09/23 06:48:55;;;;;;;21.53;15.37;;;16.50;99.90;;;;;;5030073;28;20190;-78
2021/09/23 06:51:21;;;;;;;19.00;14.53;;;16.10;99.90;;;;;;5013595;28;20179;-78
2021/09/23 06:53:47;;;;;;;20.80;15.43;;;15.70;99.90;;;;;;5031178;28;20551;-76
2021/09/23 06:56:13;;;;;;;20.93;14.53;;;15.50;99.90;;;;;;5031954;28;20266;-75
2021/09/23 06:58:39;;;;;;;23.10;15.07;;;15.30;99.90;;;;;;5015510;28;20260;-75
2021/09/23 07:01:04;;;;;;;27.23;15.10;;;15.20;99.90;;;;;;5022546;28;20226;-76
2021/09/23 07:03:30;;;;;;;21.43;14.77;;;15.10;99.90;;;;;;4995447;28;20738;-76
2021/09/23 07:05:55;;;;;;;22.53;15.90;;;15.00;99.90;;;;;;5013359;28;20226;-76
2021/09/23 07:08:21;;;;;;;19.53;14.50;;;15.00;99.90;;;;;;5012047;28;20553;-75
2021/09/23 07:10:47;;;;;;;19.03;14.80;;;15.00;99.90;;;;;;5012188;28;20572;-75
2021/09/23 07:13:12;;;;;;;22.73;15.23;;;15.10;99.90;;;;;;4995291;28;20208;-76
2021/09/23 07:15:38;;;;;;;19.83;13.60;;;15.30;99.90;;;;;;5012900;28;20574;-76
2021/09/23 07:18:04;;;;;;;17.50;13.73;;;15.40;99.90;;;;;;5011996;28;20172;-76
2021/09/23 07:20:30;;;;;;;17.30;13.43;;;15.40;99.90;;;;;;5012175;28;20557;-75
2021/09/23 07:22:55;;;;;;;20.30;13.60;;;15.50;99.90;;;;;;5011719;28;20179;-75
2021/09/23 07:25:23;;;;;;;19.23;13.50;;;15.60;99.90;;;;;;5011959;28;20183;-75
2021/09/23 07:27:52;;;;;;;18.57;13.33;;;15.80;99.90;;;;;;5011581;28;20716;-76
2021/09/23 07:30:19;;;;;;;19.23;13.77;;;15.90;99.90;;;;;;5011368;28;20321;-76
2021/09/23 07:32:44;;;;;;;17.90;13.07;;;16.00;99.90;;;;;;5011236;28;20183;-76
2021/09/23 07:35:10;;;;;;;19.00;13.20;;;16.20;99.90;;;;;;5011503;28;20551;-76
2021/09/23 07:37:36;;;;;;;16.33;12.80;;;16.30;99.90;;;;;;5011568;28;20215;-75
2021/09/23 07:40:03;;;;;;;19.33;13.73;;;16.50;99.90;;;;;;4995379;28;20199;-76
2021/09/23 07:42:29;;;;;;;19.83;13.30;;;16.60;99.90;;;;;;5011176;28;20175;-75
2021/09/23 07:44:54;;;;;;;19.60;13.37;;;16.70;99.90;;;;;;5011252;28;20214;-76
2021/09/23 07:47:20;;;;;;;20.00;13.13;;;16.80;99.90;;;;;;4995530;28;20252;-76
2021/09/23 07:49:46;;;;;;;16.83;13.53;;;16.90;99.90;;;;;;5011370;28;20203;-76
2021/09/23 07:52:11;;;;;;;16.30;12.50;;;17.00;99.90;;;;;;4993961;28;20202;-75
2021/09/23 07:54:37;;;;;;;17.43;13.37;;;17.20;99.90;;;;;;5011231;28;20203;-76
2021/09/23 07:57:03;;;;;;;22.37;13.27;;;17.20;99.90;;;;;;5011114;28;20178;-76
2021/09/23 07:59:28;;;;;;;17.00;12.17;;;17.30;99.90;;;;;;5011005;28;20770;-75
2021/09/23 08:01:54;;;;;;;16.87;12.97;;;17.50;99.90;;;;;;5016773;28;20193;-75
2021/09/23 08:04:19;;;;;;;21.30;14.00;;;17.50;99.90;;;;;;5018262;28;20179;-75
2021/09/23 08:06:45;;;;;;;19.23;13.23;;;17.50;99.90;;;;;;5012500;28;20175;-75
2021/09/23 08:09:11;;;;;;;17.43;12.70;;;17.50;99.90;;;;;;5028216;28;20194;-76
2021/09/23 08:11:36;;;;;;;18.87;13.17;;;17.60;99.90;;;;;;5030879;28;20187;-75
2021/09/23 08:14:02;;;;;;;17.70;12.20;;;17.80;99.90;;;;;;5031695;28;20209;-76
2021/09/23 08:16:27;;;;;;;17.13;12.93;;;18.00;99.90;;;;;;5031244;28;20186;-76
2021/09/23 08:18:53;;;;;;;17.33;11.87;;;18.10;99.90;;;;;;5030485;28;20282;-76
2021/09/23 08:21:18;;;;;;;18.73;12.43;;;18.20;99.90;;;;;;5029073;28;20266;-76
2021/09/23 08:23:44;;;;;;;17.90;12.43;;;18.30;99.90;;;;;;5013878;28;20192;-76
2021/09/23 08:26:10;;;;;;;16.43;12.10;;;18.50;99.90;;;;;;5030750;28;20253;-76
2021/09/23 08:28:35;;;;;;;15.67;12.20;;;18.70;99.90;;;;;;5030349;28;20179;-76
2021/09/23 08:31:01;;;;;;;16.73;11.73;;;18.70;99.90;;;;;;5014011;28;20720;-76
2021/09/23 08:33:27;;;;;;;16.37;11.60;;;18.60;99.90;;;;;;5030372;28;20199;-76
2021/09/23 08:35:52;;;;;;;16.70;11.97;;;18.70;99.90;;;;;;5013697;28;20707;-76
2021/09/23 08:38:19;;;;;;;17.67;12.43;;;19.00;99.90;;;;;;5024836;28;20190;-76
2021/09/23 08:40:49;;;;;;;17.40;11.53;;;19.20;99.90;;;;;;5028895;28;20187;-75
2021/09/23 08:43:15;;;;;;;17.63;11.87;;;19.40;99.90;;;;;;5010886;28;20717;-75
2021/09/23 08:45:41;;;;;;;16.43;11.37;;;19.70;99.90;;;;;;5010829;28;20176;-75
2021/09/23 08:48:07;;;;;;;17.43;12.53;;;19.80;99.90;;;;;;5010573;28;20631;-75
2021/09/23 08:50:32;;;;;;;16.00;11.80;;;19.70;99.90;;;;;;4994299;28;20299;-75
2021/09/23 08:52:58;;;;;;;17.30;12.10;;;20.10;99.90;;;;;;5010242;28;20255;-75
2021/09/23 08:55:26;;;;;;;16.13;11.53;;;20.60;99.90;;;;;;5010682;28;20175;-75
2021/09/23 08:57:51;;;;;;;20.70;11.63;;;21.00;99.90;;;;;;5010711;28;20262;-75
2021/09/23 09:00:17;;;;;;;14.07;11.43;;;21.20;99.90;;;;;;5010616;28;20583;-76
2021/09/23 09:02:43;;;;;;;18.07;11.90;;;20.90;99.90;;;;;;5011349;28;20179;-75
2021/09/23 09:05:16;;;;;;;18.03;11.47;;;20.60;99.90;;;;;;4997886;28;20175;-75
2021/09/23 09:07:42;;;;;;;16.33;11.23;;;20.40;99.90;;;;;;5019562;28;20179;-75
2021/09/23 09:10:09;;;;;;;16.73;10.93;;;20.40;99.90;;;;;;4997320;28;20191;-76
2021/09/23 09:12:35;;;;;;;14.03;11.20;;;20.70;99.90;;;;;;4997551;28;20530;-75
2021/09/23 09:15:01;;;;;;;14.93;10.27;;;20.80;99.90;;;;;;5014019;28;20298;-75
2021/09/23 09:17:27;;;;;;;14.43;10.07;;;20.70;99.90;;;;;;5014196;28;20259;-75
2021/09/23 09:20:02;;;;;;;14.77;9.47;;;20.60;99.90;;;;;;5013881;28;20240;-75
2021/09/23 09:22:28;;;;;;;17.03;10.37;;;20.70;99.90;;;;;;5014389;28;20185;-76
2021/09/23 09:24:56;;;;;;;14.07;9.33;;;20.60;99.90;;;;;;5013824;28;20171;-75
2021/09/23 09:27:38;;;;;;;12.43;9.77;;;20.50;99.90;;;;;;5015104;28;20191;-75
2021/09/23 09:30:09;;;;;;;12.07;9.03;;;20.60;99.90;;;;;;5014942;28;20728;-75
2021/09/23 09:32:40;;;;;;;12.07;9.63;;;20.50;99.90;;;;;;5029968;28;20183;-76
2021/09/23 09:35:06;;;;;;;11.40;9.50;;;20.50;99.90;;;;;;5030156;28;20183;-75
2021/09/23 09:37:32;;;;;;;14.53;8.80;;;20.30;99.90;;;;;;5013640;28;20474;-75
2021/09/23 09:39:59;;;;;;;13.57;9.27;;;20.30;99.90;;;;;;5013629;28;20196;-76
2021/09/23 09:42:28;;;;;;;17.10;10.23;;;20.40;99.90;;;;;;5015903;28;20539;-76
2021/09/23 09:44:57;;;;;;;15.80;9.33;;;20.30;99.90;;;;;;5013907;28;20176;-76
2021/09/23 09:47:30;;;;;;;12.33;9.00;;;20.20;99.90;;;;;;5013398;28;20234;-75
2021/09/23 09:49:57;;;;;;;13.77;8.40;;;20.00;99.90;;;;;;5013539;28;20198;-75
2021/09/23 09:52:28;;;;;;;12.27;8.93;;;20.10;99.90;;;;;;5014503;28;20261;-76
2021/09/23 09:55:20;;;;;;;16.00;9.43;;;20.10;99.90;;;;;;5014575;28;20204;-75
2021/09/23 09:57:46;;;;;;;13.07;8.33;;;20.20;99.90;;;;;;5010085;28;20191;-76
2021/09/23 10:00:12;;;;;;;12.33;8.20;;;20.40;99.90;;;;;;5018533;28;20229;-77
2021/09/23 10:02:38;;;;;;;10.93;7.50;;;20.40;99.90;;;;;;5005410;28;20550;-77
2021/09/23 10:05:04;;;;;;;11.10;7.73;;;20.60;99.90;;;;;;5018084;28;20180;-78
2021/09/23 10:07:30;;;;;;;13.33;8.33;;;20.70;99.90;;;;;;5016371;28;20247;-78
2021/09/23 10:09:56;;;;;;;11.67;7.77;;;20.90;99.90;;;;;;5016782;28;20261;-78
2021/09/23 10:12:22;;;;;;;13.90;8.27;;;20.90;99.90;;;;;;5017083;28;20178;-78
2021/09/23 10:14:48;;;;;;;11.63;8.50;;;21.10;99.90;;;;;;4999864;28;20226;-78
2021/09/23 10:17:13;;;;;;;10.93;7.73;;;21.00;99.90;;;;;;4999861;28;20266;-78
2021/09/23 10:19:40;;;;;;;10.80;7.00;;;20.90;99.90;;;;;;5016888;28;20234;-78
2021/09/23 10:22:05;;;;;;;9.83;7.67;;;20.90;99.90;;;;;;5016682;28;20176;-78
2021/09/23 10:24:31;;;;;;;9.90;7.53;;;20.80;99.90;;;;;;5000911;28;20182;-78
2021/09/23 10:26:56;;;;;;;12.77;7.70;;;20.60;99.90;;;;;;5016898;28;20176;-77
2021/09/23 10:29:22;;;;;;;12.77;8.57;;;20.50;99.90;;;;;;4999228;28;20269;-78
2021/09/23 10:31:48;;;;;;;11.97;8.33;;;20.30;99.90;;;;;;5000339;28;20186;-78
2021/09/23 10:34:13;;;;;;;10.87;8.50;;;20.20;99.90;;;;;;5014740;28;20204;-77
2021/09/23 10:36:40;;;;;;;15.77;9.10;;;20.20;99.90;;;;;;5013787;28;20180;-76
2021/09/23 10:39:07;;;;;;;13.23;8.50;;;20.10;99.90;;;;;;5023524;28;20551;-77
2021/09/23 10:41:33;;;;;;;12.07;9.13;;;20.10;99.90;;;;;;5021958;28;20670;-77
2021/09/23 10:43:59;;;;;;;12.63;8.93;;;20.10;99.90;;;;;;5024634;28;20203;-76
2021/09/23 10:46:26;;;;;;;11.63;8.20;;;20.20;99.90;;;;;;5021527;28;20222;-77
2021/09/23 10:48:52;;;;;;;14.43;8.60;;;20.40;99.90;;;;;;5021892;28;20187;-77
2021/09/23 10:51:17;;;;;;;12.47;9.00;;;20.50;99.90;;;;;;5028638;28;20187;-77
2021/09/23 10:53:49;;;;;;;9.77;8.03;;;20.50;99.90;;;;;;5026471;28;20272;-77
2021/09/23 10:56:15;;;;;;;10.73;9.20;;;20.50;99.90;;;;;;5002030;28;20590;-74
2021/09/23 10:58:43;;;;;;;10.97;8.27;;;20.60;99.90;;;;;;5013595;28;20171;-73
2021/09/23 11:01:08;;;;;;;13.10;8.33;;;20.50;99.90;;;;;;5012045;28;20198;-73
2021/09/23 11:03:37;;;;;;;9.93;7.63;;;20.70;99.90;;;;;;5011637;28;20184;-73
2021/09/23 11:06:09;;;;;;;11.67;8.50;;;20.70;99.90;;;;;;5013091;28;20654;-73
2021/09/23 11:08:42;;;;;;;11.70;8.40;;;20.70;99.90;;;;;;5011791;28;20238;-73
2021/09/23 11:11:08;;;;;;;11.87;8.20;;;20.60;99.90;;;;;;5012168;28;20540;-73
2021/09/23 11:13:36;;;;;;;11.77;8.63;;;20.60;99.90;;;;;;5011354;28;20206;-73
2021/09/23 11:16:10;;;;;;;12.97;9.07;;;20.60;99.90;;;;;;5013000;28;20254;-73
2021/09/23 11:18:36;;;;;;;11.90;8.27;;;20.50;99.90;;;;;;5011690;28;20171;-73
2021/09/23 11:21:03;;;;;;;12.20;8.03;;;20.60;99.90;;;;;;5011660;28;20234;-73
2021/09/23 11:23:29;;;;;;;9.20;7.70;;;20.50;99.90;;;;;;5012700;28;20305;-73
2021/09/23 11:25:55;;;;;;;14.37;9.37;;;20.50;99.90;;;;;;5011990;28;20270;-73
2021/09/23 11:28:21;;;;;;;11.77;8.57;;;20.40;99.90;;;;;;5023387;28;20246;-73
2021/09/23 11:30:50;;;;;;;12.80;8.40;;;20.50;99.90;;;;;;5011516;28;20257;-73
2021/09/23 11:33:17;;;;;;;14.63;8.67;;;20.60;99.90;;;;;;5011335;28;20222;-73
2021/09/23 11:35:44;;;;;;;11.83;7.40;;;20.70;99.90;;;;;;5011107;28;20172;-73
2021/09/23 11:38:10;;;;;;;13.67;8.50;;;20.90;99.90;;;;;;5011319;28;20174;-73
2021/09/23 11:40:38;;;;;;;11.57;8.17;;;21.00;99.90;;;;;;5011350;28;20240;-73
2021/09/23 11:43:05;;;;;;;11.80;8.53;;;21.10;99.90;;;;;;5011043;28;20195;-73
2021/09/23 11:45:33;;;;;;;13.97;8.50;;;21.10;99.90;;;;;;5011198;28;20714;-74
2021/09/23 11:48:10;;;;;;;14.00;8.70;;;21.10;99.90;;;;;;5011807;28;20230;-73
2021/09/23 11:50:35;;;;;;;14.57;7.63;;;21.10;99.90;;;;;;5020409;28;20233;-72
2021/09/23 11:53:23;;;;;;;14.73;9.20;;;21.10;99.90;;;;;;5019144;28;20198;-73
2021/09/23 11:55:58;;;;;;;15.10;9.13;;;21.20;99.90;;;;;;5030953;28;20186;-73
2021/09/23 11:58:24;;;;;;;13.87;9.30;;;21.00;99.90;;;;;;5031548;28;20206;-73
2021/09/23 12:00:50;;;;;;;13.23;9.17;;;21.00;99.90;;;;;;5030241;28;20737;-73
2021/09/23 12:03:17;;;;;;;11.17;8.90;;;21.00;99.90;;;;;;5029604;28;20530;-73
2021/09/23 12:05:43;;;;;;;14.77;9.50;;;21.00;99.90;;;;;;5027175;28;20183;-73
2021/09/23 12:08:12;;;;;;;14.03;9.80;;;20.90;99.90;;;;;;5029533;28;20181;-73
2021/09/23 12:11:04;;;;;;;11.50;9.30;;;20.80;99.90;;;;;;5029978;28;20215;-73
2021/09/23 12:15:59;;;;;;;10.60;8.83;;;20.70;99.90;;;;;;5029759;28;20210;-73
2021/09/23 12:18:26;;;;;;;12.27;8.57;;;20.50;99.90;;;;;;5030051;28;20171;-73
2021/09/23 12:20:53;;;;;;;16.20;9.33;;;20.40;99.90;;;;;;5029510;28;20175;-73
2021/09/23 12:23:27;;;;;;;13.23;9.23;;;20.30;99.90;;;;;;5013424;28;20190;-73
2021/09/23 12:26:10;;;;;;;12.17;8.57;;;20.30;99.90;;;;;;5028958;28;20193;-73
2021/09/23 12:28:40;;;;;;;11.37;7.83;;;20.20;99.90;;;;;;5014109;28;20285;-73
2021/09/23 12:31:07;;;;;;;11.83;9.07;;;20.10;99.90;;;;;;5024847;28;20195;-73
2021/09/23 12:33:32;;;;;;;12.33;8.27;;;20.10;99.90;;;;;;5032471;28;20199;-73